sensor_id;sensor_type;location;lat;lon;timestamp;pressure;altitude;pressure_sealevel;temperature;humidity
57568;BME280;43403;51.948;5.922;2023-02-12T00:01:34;103771.88;;;8.37;100.00
57568;BME280;43403;51.948;5.922;2023-02-12T00:04:01;103775.59;;;8.31;100.00
57568;BME280;43403;51.948;5.922;2023-02-12T00:06:27;103770.16;;;8.36;100.00
57568;BME280;43403;51.948;5.922;2023-02-12T00:08:55;103770.09;;;8.38;100.00
57568;BME280;43403;51.948;5.922;2023-02-12T00:11:24;103764.81;;;8.39;100.00
57568;BME280;43403;51.948;5.922;2023-02-12T00:13:52;103772.72;;;8.38;100.00
57568;BME280;43403;51.948;5.922;2023-02-12T00:16:22;103776.97;;;8.40;100.00
57568;BME280;43403;51.948;5.922;2023-02-12T00:18:51;103776.19;;;8.38;100.00
57568;BME280;43403;51.948;5.922;2023-02-12T00:21:18;103779.22;;;8.27;100.00
57568;BME280;43403;51.948;5.922;2023-02-12T00:23:44;103780.03;;;8.29;100.00
57568;BME280;43403;51.948;5.922;2023-02-12T00:26:13;103775.09;;;8.22;100.00
57568;BME280;43403;51.948;5.922;2023-02-12T00:28:40;103767.25;;;8.22;100.00
57568;BME280;43403;51.948;5.922;2023-02-12T00:31:08;103763.84;;;8.20;100.00
57568;BME280;43403;51.948;5.922;2023-02-12T00:33:35;103772.34;;;8.25;100.00
57568;BME280;43403;51.948;5.922;2023-02-12T00:36:02;103762.63;;;8.28;100.00
57568;BME280;43403;51.948;5.922;2023-02-12T00:38:28;103773.06;;;8.28;100.00
57568;BME280;43403;51.948;5.922;2023-02-12T00:40:54;103775.03;;;8.23;100.00
57568;BME280;43403;51.948;5.922;2023-02-12T00:43:21;103769.66;;;8.26;100.00
57568;BME280;43403;51.948;5.922;2023-02-12T00:45:47;103768.94;;;8.23;100.00
57568;BME280;43403;51.948;5.922;2023-02-12T00:48:14;103771.38;;;8.27;100.00
57568;BME280;43403;51.948;5.922;2023-02-12T00:50:43;103778.31;;;8.28;100.00
57568;BME280;43403;51.948;5.922;2023-02-12T00:53:09;103773.13;;;8.27;100.00
57568;BME280;43403;51.948;5.922;2023-02-12T00:55:35;103772.28;;;8.26;100.00
57568;BME280;43403;51.948;5.922;2023-02-12T00:58:02;103772.28;;;8.26;100.00
57568;BME280;43403;51.948;5.922;2023-02-12T01:00:28;103772.34;;;8.25;100.00
57568;BME280;43403;51.948;5.922;2023-02-12T01:02:55;103765.22;;;8.28;100.00
57568;BME280;43403;51.948;5.922;2023-02-12T01:05:21;103770.66;;;8.24;100.00
57568;BME280;43403;51.948;5.922;2023-02-12T01:07:51;103778.50;;;8.24;100.00
57568;BME280;43403;51.948;5.922;2023-02-12T01:10:18;103779.47;;;8.21;100.00
57568;BME280;43403;51.948;5.922;2023-02-12T01:12:48;103776.03;;;8.19;100.00
57568;BME280;43403;51.948;5.922;2023-02-12T01:15:15;103766.44;;;8.20;100.00
57568;BME280;43403;51.948;5.922;2023-02-12T01:17:42;103772.53;;;8.20;100.00
57568;BME280;43403;51.948;5.922;2023-02-12T01:20:11;103769.84;;;8.22;100.00
57568;BME280;43403;51.948;5.922;2023-02-12T01:22:38;103772.47;;;8.22;100.00
57568;BME280;43403;51.948;5.922;2023-02-12T01:25:05;103772.63;;;8.17;100.00
57568;BME280;43403;51.948;5.922;2023-02-12T01:27:32;103776.97;;;8.18;100.00
57568;BME280;43403;51.948;5.922;2023-02-12T01:29:58;103777.00;;;8.17;100.00
57568;BME280;43403;51.948;5.922;2023-02-12T01:32:25;103772.84;;;8.11;100.00
57568;BME280;43403;51.948;5.922;2023-02-12T01:34:51;103775.44;;;8.12;100.00
57568;BME280;43403;51.948;5.922;2023-02-12T01:37:17;103787.59;;;8.14;100.00
57568;BME280;43403;51.948;5.922;2023-02-12T01:39:44;103778.00;;;8.14;100.00
57568;BME280;43403;51.948;5.922;2023-02-12T01:42:13;103770.09;;;8.16;100.00
57568;BME280;43403;51.948;5.922;2023-02-12T01:44:42;103773.59;;;8.15;100.00
57568;BME280;43403;51.948;5.922;2023-02-12T01:47:16;103778.03;;;8.12;100.00
57568;BME280;43403;51.948;5.922;2023-02-12T01:49:44;103775.44;;;8.12;100.00
57568;BME280;43403;51.948;5.922;2023-02-12T01:52:17;103765.06;;;8.09;100.00
57568;BME280;43403;51.948;5.922;2023-02-12T01:54:46;103772.25;;;8.04;100.00
57568;BME280;43403;51.948;5.922;2023-02-12T01:57:13;103775.88;;;8.00;100.00
57568;BME280;43403;51.948;5.922;2023-02-12T01:59:41;103784.56;;;8.01;100.00
57568;BME280;43403;51.948;5.922;2023-02-12T02:02:08;103773.38;;;7.97;100.00
57568;BME280;43403;51.948;5.922;2023-02-12T02:04:45;103769.88;;;7.98;100.00
57568;BME280;43403;51.948;5.922;2023-02-12T02:07:13;103768.19;;;7.96;100.00
57568;BME280;43403;51.948;5.922;2023-02-12T02:09:40;103760.50;;;7.92;100.00
57568;BME280;43403;51.948;5.922;2023-02-12T02:12:06;103759.78;;;7.87;100.00
57568;BME280;43403;51.948;5.922;2023-02-12T02:14:52;103764.19;;;7.87;100.00
57568;BME280;43403;51.948;5.922;2023-02-12T02:25:07;103758.53;;;7.74;100.00
57568;BME280;43403;51.948;5.922;2023-02-12T02:30:28;103755.34;;;7.66;100.00
57568;BME280;43403;51.948;5.922;2023-02-12T02:33:01;103767.75;;;7.61;100.00
57568;BME280;43403;51.948;5.922;2023-02-12T02:38:06;103756.66;;;7.54;100.00
57568;BME280;43403;51.948;5.922;2023-02-12T02:40:40;103747.97;;;7.53;100.00
57568;BME280;43403;51.948;5.922;2023-02-12T02:43:15;103752.41;;;7.51;100.00
57568;BME280;43403;51.948;5.922;2023-02-12T02:45:48;103743.72;;;7.51;100.00
57568;BME280;43403;51.948;5.922;2023-02-12T02:48:21;103745.53;;;7.49;100.00
57568;BME280;43403;51.948;5.922;2023-02-12T02:50:51;103744.66;;;7.48;100.00
57568;BME280;43403;51.948;5.922;2023-02-12T02:53:34;103742.97;;;7.47;100.00
57568;BME280;43403;51.948;5.922;2023-02-12T02:56:04;103747.44;;;7.44;100.00
57568;BME280;43403;51.948;5.922;2023-02-12T02:58:36;103745.81;;;7.41;100.00
57568;BME280;43403;51.948;5.922;2023-02-12T03:01:15;103744.03;;;7.42;100.00
57568;BME280;43403;51.948;5.922;2023-02-12T03:03:57;103743.19;;;7.41;100.00
57568;BME280;43403;51.948;5.922;2023-02-12T03:06:27;103747.66;;;7.38;100.00
57568;BME280;43403;51.948;5.922;2023-02-12T03:08:56;103745.19;;;7.33;100.00
57568;BME280;43403;51.948;5.922;2023-02-12T03:11:26;103745.41;;;7.27;100.00
57568;BME280;43403;51.948;5.922;2023-02-12T03:14:07;103748.19;;;7.22;100.00
57568;BME280;43403;51.948;5.922;2023-02-12T03:16:38;103754.38;;;7.20;100.00
57568;BME280;43403;51.948;5.922;2023-02-12T03:19:14;103748.44;;;7.15;100.00
57568;BME280;43403;51.948;5.922;2023-02-12T03:24:43;103743.28;;;7.13;100.00
57568;BME280;43403;51.948;5.922;2023-02-12T03:27:03;103750.22;;;7.14;100.00
57568;BME280;43403;51.948;5.922;2023-02-12T03:29:31;103749.38;;;7.13;100.00
57568;BME280;43403;51.948;5.922;2023-02-12T03:37:09;103741.47;;;7.15;100.00
57568;BME280;43403;51.948;5.922;2023-02-12T03:42:25;103745.84;;;7.15;100.00
57568;BME280;43403;51.948;5.922;2023-02-12T03:44:55;103745.84;;;7.15;100.00
57568;BME280;43403;51.948;5.922;2023-02-12T03:47:24;103750.16;;;7.16;100.00
57568;BME280;43403;51.948;5.922;2023-02-12T03:52:28;103751.84;;;7.17;100.00
57568;BME280;43403;51.948;5.922;2023-02-12T03:54:55;103761.47;;;7.16;100.00
57568;BME280;43403;51.948;5.922;2023-02-12T03:57:23;103758.00;;;7.16;100.00
57568;BME280;43403;51.948;5.922;2023-02-12T03:59:59;103759.72;;;7.15;100.00
57568;BME280;43403;51.948;5.922;2023-02-12T04:02:26;103758.94;;;7.13;100.00
57568;BME280;43403;51.948;5.922;2023-02-12T04:04:53;103761.72;;;7.08;100.00
57568;BME280;43403;51.948;5.922;2023-02-12T04:07:19;103759.16;;;7.07;100.00
57568;BME280;43403;51.948;5.922;2023-02-12T04:09:45;103765.34;;;7.04;100.00
57568;BME280;43403;51.948;5.922;2023-02-12T04:19:54;103771.50;;;7.02;100.00
57568;BME280;43403;51.948;5.922;2023-02-12T04:22:42;103774.06;;;7.03;100.00
57568;BME280;43403;51.948;5.922;2023-02-12T04:32:49;103780.78;;;7.10;100.00
57568;BME280;43403;51.948;5.922;2023-02-12T04:35:19;103787.81;;;7.08;100.00
57568;BME280;43403;51.948;5.922;2023-02-12T04:37:51;103782.50;;;7.11;100.00
57568;BME280;43403;51.948;5.922;2023-02-12T04:40:20;103789.41;;;7.12;100.00
57568;BME280;43403;51.948;5.922;2023-02-12T04:42:50;103793.66;;;7.15;100.00
57568;BME280;43403;51.948;5.922;2023-02-12T04:45:28;103789.31;;;7.16;100.00
57568;BME280;43403;51.948;5.922;2023-02-12T04:47:55;103796.16;;;7.20;100.00
57568;BME280;43403;51.948;5.922;2023-02-12T04:50:21;103794.34;;;7.22;100.00
57568;BME280;43403;51.948;5.922;2023-02-12T04:52:47;103791.69;;;7.23;100.00
57568;BME280;43403;51.948;5.922;2023-02-12T04:55:14;103796.81;;;7.25;100.00
57568;BME280;43403;51.948;5.922;2023-02-12T04:57:41;103795.00;;;7.27;100.00
57568;BME280;43403;51.948;5.922;2023-02-12T05:00:08;103801.13;;;7.27;100.00
57568;BME280;43403;51.948;5.922;2023-02-12T05:02:35;103794.00;;;7.31;100.00
57568;BME280;43403;51.948;5.922;2023-02-12T05:05:01;103796.63;;;7.31;100.00
57568;BME280;43403;51.948;5.922;2023-02-12T05:07:27;103806.09;;;7.35;100.00
57568;BME280;43403;51.948;5.922;2023-02-12T05:09:54;103797.31;;;7.36;100.00
57568;BME280;43403;51.948;5.922;2023-02-12T05:12:20;103798.25;;;7.35;100.00
57568;BME280;43403;51.948;5.922;2023-02-12T05:14:46;103801.75;;;7.34;100.00
57568;BME280;43403;51.948;5.922;2023-02-12T05:17:13;103805.19;;;7.35;100.00
57568;BME280;43403;51.948;5.922;2023-02-12T05:19:39;103799.09;;;7.36;100.00
57568;BME280;43403;51.948;5.922;2023-02-12T05:22:05;103795.56;;;7.37;100.00
57568;BME280;43403;51.948;5.922;2023-02-12T05:24:32;103799.94;;;7.36;100.00
57568;BME280;43403;51.948;5.922;2023-02-12T05:26:58;103797.50;;;7.31;100.00
57568;BME280;43403;51.948;5.922;2023-02-12T05:29:24;103800.03;;;7.33;100.00
57568;BME280;43403;51.948;5.922;2023-02-12T05:31:51;103801.66;;;7.37;100.00
57568;BME280;43403;51.948;5.922;2023-02-12T05:34:17;103803.50;;;7.33;100.00
57568;BME280;43403;51.948;5.922;2023-02-12T05:36:44;103796.53;;;7.34;100.00
57568;BME280;43403;51.948;5.922;2023-02-12T05:39:10;103811.22;;;7.37;100.00
57568;BME280;43403;51.948;5.922;2023-02-12T05:41:36;103811.97;;;7.40;100.00
57568;BME280;43403;51.948;5.922;2023-02-12T05:44:03;103811.19;;;7.38;100.00
57568;BME280;43403;51.948;5.922;2023-02-12T05:46:30;103809.31;;;7.42;100.00
57568;BME280;43403;51.948;5.922;2023-02-12T05:48:56;103812.69;;;7.45;100.00
57568;BME280;43403;51.948;5.922;2023-02-12T05:51:24;103804.72;;;7.48;100.00
57568;BME280;43403;51.948;5.922;2023-02-12T05:53:52;103804.81;;;7.47;100.00
57568;BME280;43403;51.948;5.922;2023-02-12T05:56:19;103810.72;;;7.52;100.00
57568;BME280;43403;51.948;5.922;2023-02-12T05:58:47;103809.81;;;7.53;100.00
57568;BME280;43403;51.948;5.922;2023-02-12T06:01:16;103801.06;;;7.54;100.00
57568;BME280;43403;51.948;5.922;2023-02-12T06:03:43;103807.13;;;7.55;100.00
57568;BME280;43403;51.948;5.922;2023-02-12T06:06:09;103809.72;;;7.55;100.00
57568;BME280;43403;51.948;5.922;2023-02-12T06:08:36;103811.47;;;7.56;100.00
57568;BME280;43403;51.948;5.922;2023-02-12T06:11:06;103811.41;;;7.57;100.00
57568;BME280;43403;51.948;5.922;2023-02-12T06:13:33;103811.38;;;7.59;100.00
57568;BME280;43403;51.948;5.922;2023-02-12T06:15:59;103811.28;;;7.60;100.00
57568;BME280;43403;51.948;5.922;2023-02-12T06:18:26;103818.22;;;7.61;100.00
57568;BME280;43403;51.948;5.922;2023-02-12T06:20:53;103820.78;;;7.63;100.00
57568;BME280;43403;51.948;5.922;2023-02-12T06:23:23;103811.28;;;7.60;100.00
57568;BME280;43403;51.948;5.922;2023-02-12T06:25:50;103817.66;;;7.53;100.00
57568;BME280;43403;51.948;5.922;2023-02-12T06:28:21;103817.66;;;7.53;100.00
57568;BME280;43403;51.948;5.922;2023-02-12T06:30:47;103821.00;;;7.57;100.00
57568;BME280;43403;51.948;5.922;2023-02-12T06:33:14;103819.19;;;7.59;100.00
57568;BME280;43403;51.948;5.922;2023-02-12T06:35:40;103819.19;;;7.59;100.00
57568;BME280;43403;51.948;5.922;2023-02-12T06:38:06;103826.97;;;7.60;100.00
57568;BME280;43403;51.948;5.922;2023-02-12T06:40:33;103820.88;;;7.60;100.00
57568;BME280;43403;51.948;5.922;2023-02-12T06:42:59;103825.28;;;7.59;100.00
57568;BME280;43403;51.948;5.922;2023-02-12T06:45:26;103819.25;;;7.57;100.00
57568;BME280;43403;51.948;5.922;2023-02-12T06:47:52;103823.63;;;7.57;100.00
57568;BME280;43403;51.948;5.922;2023-02-12T06:50:19;103827.09;;;7.57;100.00
57568;BME280;43403;51.948;5.922;2023-02-12T06:52:45;103826.16;;;7.58;100.00
57568;BME280;43403;51.948;5.922;2023-02-12T06:55:11;103822.66;;;7.59;100.00
57568;BME280;43403;51.948;5.922;2023-02-12T06:57:38;103834.66;;;7.65;100.00
57568;BME280;43403;51.948;5.922;2023-02-12T07:00:04;103832.84;;;7.67;100.00
57568;BME280;43403;51.948;5.922;2023-02-12T07:02:31;103836.25;;;7.69;100.00
57568;BME280;43403;51.948;5.922;2023-02-12T07:04:57;103836.22;;;7.70;100.00
57568;BME280;43403;51.948;5.922;2023-02-12T07:07:23;103836.25;;;7.69;100.00
57568;BME280;43403;51.948;5.922;2023-02-12T07:09:50;103843.16;;;7.70;100.00
57568;BME280;43403;51.948;5.922;2023-02-12T07:12:16;103844.09;;;7.69;100.00
57568;BME280;43403;51.948;5.922;2023-02-12T07:14:43;103846.75;;;7.67;100.00
57568;BME280;43403;51.948;5.922;2023-02-12T07:17:09;103845.09;;;7.65;100.00
57568;BME280;43403;51.948;5.922;2023-02-12T07:19:35;103846.84;;;7.64;100.00
57568;BME280;43403;51.948;5.922;2023-02-12T07:22:02;103844.22;;;7.64;100.00
57568;BME280;43403;51.948;5.922;2023-02-12T07:24:28;103844.22;;;7.64;100.00
57568;BME280;43403;51.948;5.922;2023-02-12T07:26:55;103859.88;;;7.66;100.00
57568;BME280;43403;51.948;5.922;2023-02-12T07:29:21;103854.63;;;7.66;100.00
57568;BME280;43403;51.948;5.922;2023-02-12T07:31:47;103858.94;;;7.68;100.00
57568;BME280;43403;51.948;5.922;2023-02-12T07:34:14;103861.47;;;7.70;100.00
57568;BME280;43403;51.948;5.922;2023-02-12T07:36:40;103867.56;;;7.70;100.00
57568;BME280;43403;51.948;5.922;2023-02-12T07:39:09;103855.22;;;7.74;100.00
57568;BME280;43403;51.948;5.922;2023-02-12T07:41:36;103860.34;;;7.77;100.00
57568;BME280;43403;51.948;5.922;2023-02-12T07:44:03;103863.75;;;7.79;100.00
57568;BME280;43403;51.948;5.922;2023-02-12T07:46:33;103867.22;;;7.80;100.00
57568;BME280;43403;51.948;5.922;2023-02-12T07:49:01;103869.00;;;7.79;100.00
57568;BME280;43403;51.948;5.922;2023-02-12T07:51:29;103866.34;;;7.81;100.00
57568;BME280;43403;51.948;5.922;2023-02-12T07:53:57;103866.34;;;7.81;100.00
57568;BME280;43403;51.948;5.922;2023-02-12T07:56:26;103868.03;;;7.82;100.00
57568;BME280;43403;51.948;5.922;2023-02-12T07:58:56;103876.63;;;7.85;100.00
57568;BME280;43403;51.948;5.922;2023-02-12T08:01:24;103873.91;;;7.88;100.00
57568;BME280;43403;51.948;5.922;2023-02-12T08:03:57;103870.31;;;7.91;100.00
57568;BME280;43403;51.948;5.922;2023-02-12T08:06:24;103875.50;;;7.92;100.00
57568;BME280;43403;51.948;5.922;2023-02-12T08:08:54;103877.19;;;7.93;100.00
57568;BME280;43403;51.948;5.922;2023-02-12T08:11:21;103879.75;;;7.95;100.00
57568;BME280;43403;51.948;5.922;2023-02-12T08:13:48;103881.47;;;7.96;100.00
57568;BME280;43403;51.948;5.922;2023-02-12T08:16:15;103887.47;;;8.00;100.00
57568;BME280;43403;51.948;5.922;2023-02-12T08:18:43;103886.47;;;8.02;100.00
57568;BME280;43403;51.948;5.922;2023-02-12T08:21:10;103888.19;;;8.03;100.00
57568;BME280;43403;51.948;5.922;2023-02-12T08:23:37;103895.91;;;8.06;100.00
57568;BME280;43403;51.948;5.922;2023-02-12T08:26:04;103895.00;;;8.07;100.00
57568;BME280;43403;51.948;5.922;2023-02-12T08:28:31;103896.63;;;8.11;100.00
57568;BME280;43403;51.948;5.922;2023-02-12T08:31:04;103901.72;;;8.15;100.00
57568;BME280;43403;51.948;5.922;2023-02-12T08:33:32;103902.47;;;8.18;100.00
57568;BME280;43403;51.948;5.922;2023-02-12T08:38:28;103903.09;;;8.25;100.00
57568;BME280;43403;51.948;5.922;2023-02-12T08:40:54;103909.91;;;8.29;100.00
57568;BME280;43403;51.948;5.922;2023-02-12T08:43:21;103902.94;;;8.29;100.00
57568;BME280;43403;51.948;5.922;2023-02-12T08:45:47;103912.38;;;8.34;100.00
57568;BME280;43403;51.948;5.922;2023-02-12T08:48:13;103913.19;;;8.36;100.00
57568;BME280;43403;51.948;5.922;2023-02-12T08:50:40;103912.19;;;8.38;100.00
57568;BME280;43403;51.948;5.922;2023-02-12T08:53:06;103919.97;;;8.41;100.00
57568;BME280;43403;51.948;5.922;2023-02-12T08:55:33;103918.03;;;8.46;100.00
57568;BME280;43403;51.948;5.922;2023-02-12T08:57:59;103927.56;;;8.49;100.00
57568;BME280;43403;51.948;5.922;2023-02-12T09:00:26;103926.63;;;8.50;100.00
57568;BME280;43403;51.948;5.922;2023-02-12T09:02:52;103929.09;;;8.55;100.00
57568;BME280;43403;51.948;5.922;2023-02-12T09:05:18;103931.63;;;8.56;100.00
57568;BME280;43403;51.948;5.922;2023-02-12T09:07:45;103929.81;;;8.58;100.00
57568;BME280;43403;51.948;5.922;2023-02-12T09:10:11;103928.97;;;8.58;100.00
57568;BME280;43403;51.948;5.922;2023-02-12T09:12:38;103926.16;;;8.62;100.00
57568;BME280;43403;51.948;5.922;2023-02-12T09:15:04;103937.31;;;8.67;100.00
57568;BME280;43403;51.948;5.922;2023-02-12T09:17:30;103927.59;;;8.71;100.00
57568;BME280;43403;51.948;5.922;2023-02-12T09:19:57;103927.53;;;8.73;100.00
57568;BME280;43403;51.948;5.922;2023-02-12T09:22:23;103935.25;;;8.76;100.00
57568;BME280;43403;51.948;5.922;2023-02-12T09:24:49;103936.94;;;8.78;100.00
57568;BME280;43403;51.948;5.922;2023-02-12T09:27:16;103941.38;;;8.76;100.00
57568;BME280;43403;51.948;5.922;2023-02-12T09:29:42;103937.84;;;8.77;100.00
57568;BME280;43403;51.948;5.922;2023-02-12T09:32:08;103940.41;;;8.79;100.00
57568;BME280;43403;51.948;5.922;2023-02-12T09:34:35;103941.56;;;8.70;100.00
57568;BME280;43403;51.948;5.922;2023-02-12T09:37:01;103941.38;;;8.76;100.00
57568;BME280;43403;51.948;5.922;2023-02-12T09:39:28;103944.66;;;8.81;100.00
57568;BME280;43403;51.948;5.922;2023-02-12T09:46:57;103932.06;;;8.91;100.00
57568;BME280;43403;51.948;5.922;2023-02-12T09:51:51;103940.59;;;8.96;100.00
57568;BME280;43403;51.948;5.922;2023-02-12T09:54:20;103935.22;;;8.99;100.00
57568;BME280;43403;51.948;5.922;2023-02-12T09:56:49;103936.22;;;8.97;100.00
57568;BME280;43403;51.948;5.922;2023-02-12T10:00:00;103937.78;;;9.01;100.00
57568;BME280;43403;51.948;5.922;2023-02-12T10:02:14;103935.88;;;9.06;100.00
57568;BME280;43403;51.948;5.922;2023-02-12T10:04:42;103945.25;;;9.12;100.00
57568;BME280;43403;51.948;5.922;2023-02-12T10:07:41;103937.31;;;9.13;100.00
57568;BME280;43403;51.948;5.922;2023-02-12T10:15:51;103940.50;;;9.21;100.00
57568;BME280;43403;51.948;5.922;2023-02-12T10:18:34;103943.97;;;9.22;100.00
57568;BME280;43403;51.948;5.922;2023-02-12T10:28:40;103938.28;;;9.33;100.00
57568;BME280;43403;51.948;5.922;2023-02-12T10:31:12;103926.91;;;9.34;100.00
57568;BME280;43403;51.948;5.922;2023-02-12T10:33:43;103932.78;;;9.39;100.00
57568;BME280;43403;51.948;5.922;2023-02-12T10:38:49;103937.19;;;9.38;100.00
57568;BME280;43403;51.948;5.922;2023-02-12T10:41:17;103937.84;;;9.43;100.00
57568;BME280;43403;51.948;5.922;2023-02-12T10:43:43;103934.19;;;9.47;100.00
57568;BME280;43403;51.948;5.922;2023-02-12T10:46:14;103934.94;;;9.51;100.00
57568;BME280;43403;51.948;5.922;2023-02-12T10:48:41;103940.13;;;9.53;100.00
57568;BME280;43403;51.948;5.922;2023-02-12T10:53:47;103940.66;;;9.39;100.00
57568;BME280;43403;51.948;5.922;2023-02-12T11:01:17;103936.38;;;9.36;100.00
57568;BME280;43403;51.948;5.922;2023-02-12T11:03:45;103939.06;;;9.35;100.00
57568;BME280;43403;51.948;5.922;2023-02-12T11:06:15;103940.56;;;9.20;100.00
57568;BME280;43403;51.948;5.922;2023-02-12T11:08:43;103947.47;;;9.21;100.00
57568;BME280;43403;51.948;5.922;2023-02-12T11:11:10;103940.06;;;9.10;100.00
57568;BME280;43403;51.948;5.922;2023-02-12T11:13:38;103936.41;;;9.14;100.00
57568;BME280;43403;51.948;5.922;2023-02-12T11:16:06;103934.59;;;9.16;100.00
57568;BME280;43403;51.948;5.922;2023-02-12T11:18:33;103931.28;;;9.11;100.00
57568;BME280;43403;51.948;5.922;2023-02-12T11:21:05;103933.78;;;9.14;100.00
57568;BME280;43403;51.948;5.922;2023-02-12T11:23:33;103936.50;;;9.11;100.00
57568;BME280;43403;51.948;5.922;2023-02-12T11:26:02;103928.66;;;9.11;100.00
57568;BME280;43403;51.948;5.922;2023-02-12T11:28:29;103935.97;;;9.03;99.91
57568;BME280;43403;51.948;5.922;2023-02-12T11:31:03;103931.53;;;9.05;100.00
57568;BME280;43403;51.948;5.922;2023-02-12T11:33:42;103925.38;;;9.06;100.00
57568;BME280;43403;51.948;5.922;2023-02-12T11:36:12;103925.25;;;9.09;100.00
57568;BME280;43403;51.948;5.922;2023-02-12T11:38:47;103918.13;;;9.13;100.00
57568;BME280;43403;51.948;5.922;2023-02-12T11:43:53;103914.16;;;9.24;100.00
57568;BME280;43403;51.948;5.922;2023-02-12T11:46:21;103910.44;;;9.30;100.00
57568;BME280;43403;51.948;5.922;2023-02-12T11:48:48;103908.50;;;9.35;100.00
57568;BME280;43403;51.948;5.922;2023-02-12T11:51:25;103900.25;;;9.44;100.00
57568;BME280;43403;51.948;5.922;2023-02-12T11:53:55;103906.03;;;9.53;100.00
57568;BME280;43403;51.948;5.922;2023-02-12T11:56:22;103901.66;;;9.53;100.00
57568;BME280;43403;51.948;5.922;2023-02-12T11:58:49;103896.25;;;9.56;100.00
57568;BME280;43403;51.948;5.922;2023-02-12T12:01:21;103884.66;;;9.62;100.00
57568;BME280;43403;51.948;5.922;2023-02-12T12:03:58;103886.91;;;9.71;100.00
57568;BME280;43403;51.948;5.922;2023-02-12T12:06:35;103878.09;;;9.72;99.40
57568;BME280;43403;51.948;5.922;2023-02-12T12:09:05;103882.19;;;9.79;100.00
57568;BME280;43403;51.948;5.922;2023-02-12T12:14:28;103878.06;;;9.94;100.00
57568;BME280;43403;51.948;5.922;2023-02-12T12:20:14;103868.63;;;10.09;100.00
57568;BME280;43403;51.948;5.922;2023-02-12T12:25:48;103869.94;;;10.19;100.00
57568;BME280;43403;51.948;5.922;2023-02-12T12:28:34;103868.88;;;10.23;99.39
57568;BME280;43403;51.948;5.922;2023-02-12T12:31:18;103872.47;;;10.21;93.42
57568;BME280;43403;51.948;5.922;2023-02-12T12:33:50;103868.72;;;10.26;96.20
57568;BME280;43403;51.948;5.922;2023-02-12T12:41:29;103870.00;;;10.18;89.39
57568;BME280;43403;51.948;5.922;2023-02-12T12:54:36;103852.50;;;10.18;94.96
57568;BME280;43403;51.948;5.922;2023-02-12T12:57:11;103855.41;;;10.12;87.81
57568;BME280;43403;51.948;5.922;2023-02-12T13:07:25;103851.16;;;10.09;90.48
57568;BME280;43403;51.948;5.922;2023-02-12T13:10:02;103843.19;;;10.11;90.61
57568;BME280;43403;51.948;5.922;2023-02-12T13:15:22;103838.28;;;9.84;89.76
57568;BME280;43403;51.948;5.922;2023-02-12T13:20:39;103833.88;;;9.85;90.07
57568;BME280;43403;51.948;5.922;2023-02-12T13:23:13;103833.81;;;9.86;91.03
57568;BME280;43403;51.948;5.922;2023-02-12T13:25:43;103836.88;;;9.96;97.44
57568;BME280;43403;51.948;5.922;2023-02-12T13:28:12;103835.94;;;9.97;92.47
57568;BME280;43403;51.948;5.922;2023-02-12T13:30:44;103834.81;;;10.03;93.50
57568;BME280;43403;51.948;5.922;2023-02-12T13:33:20;103842.69;;;10.03;90.48
57568;BME280;43403;51.948;5.922;2023-02-12T13:35:48;103832.13;;;10.04;90.33
57568;BME280;43403;51.948;5.922;2023-02-12T13:38:19;103836.44;;;10.05;91.36
57568;BME280;43403;51.948;5.922;2023-02-12T13:40:46;103831.81;;;9.92;87.96
57568;BME280;43403;51.948;5.922;2023-02-12T13:45:47;103830.34;;;9.86;90.24
57568;BME280;43403;51.948;5.922;2023-02-12T13:48:39;103828.06;;;9.97;93.55
57568;BME280;43403;51.948;5.922;2023-02-12T13:51:21;103819.50;;;9.94;91.14
57568;BME280;43403;51.948;5.922;2023-02-12T13:59:02;103816.34;;;10.06;94.62
57568;BME280;43403;51.948;5.922;2023-02-12T14:01:44;103814.69;;;10.03;91.21
57568;BME280;43403;51.948;5.922;2023-02-12T14:04:37;103812.66;;;10.10;94.48
57568;BME280;43403;51.948;5.922;2023-02-12T14:09:32;103815.69;;;10.20;97.91
57568;BME280;43403;51.948;5.922;2023-02-12T14:12:03;103813.38;;;10.14;89.93
57568;BME280;43403;51.948;5.922;2023-02-12T14:14:31;103817.91;;;10.10;89.73
57568;BME280;43403;51.948;5.922;2023-02-12T14:24:51;103803.94;;;10.09;92.17
57568;BME280;43403;51.948;5.922;2023-02-12T14:37:57;103797.75;;;10.10;91.90
57568;BME280;43403;51.948;5.922;2023-02-12T14:43:00;103806.19;;;10.17;94.31
57568;BME280;43403;51.948;5.922;2023-02-12T14:45:31;103799.19;;;10.18;95.18
57568;BME280;43403;51.948;5.922;2023-02-12T14:47:58;103800.53;;;10.07;90.29
57568;BME280;43403;51.948;5.922;2023-02-12T14:50:27;103804.84;;;10.08;92.86
57568;BME280;43403;51.948;5.922;2023-02-12T14:52:57;103797.81;;;10.09;95.20
57568;BME280;43403;51.948;5.922;2023-02-12T14:55:26;103794.63;;;10.02;91.05
57568;BME280;43403;51.948;5.922;2023-02-12T14:57:58;103799.94;;;10.01;89.46
57568;BME280;43403;51.948;5.922;2023-02-12T15:00:46;103799.09;;;10.00;89.94
57568;BME280;43403;51.948;5.922;2023-02-12T15:08:31;103798.88;;;10.05;94.77
57568;BME280;43403;51.948;5.922;2023-02-12T15:13:47;103799.38;;;9.94;90.46
57568;BME280;43403;51.948;5.922;2023-02-12T15:16:17;103794.03;;;9.96;91.27
57568;BME280;43403;51.948;5.922;2023-02-12T15:18:50;103796.59;;;9.97;93.20
57568;BME280;43403;51.948;5.922;2023-02-12T15:21:24;103799.09;;;10.00;94.53
57568;BME280;43403;51.948;5.922;2023-02-12T15:24:19;103790.16;;;10.04;93.73
57568;BME280;43403;51.948;5.922;2023-02-12T15:26:48;103787.47;;;10.06;93.81
57568;BME280;43403;51.948;5.922;2023-02-12T15:29:15;103788.25;;;10.08;95.38
57568;BME280;43403;51.948;5.922;2023-02-12T15:31:44;103775.28;;;10.05;94.20
57568;BME280;43403;51.948;5.922;2023-02-12T15:34:16;103786.59;;;10.05;93.31
57568;BME280;43403;51.948;5.922;2023-02-12T15:36:45;103791.06;;;10.03;93.48